sensor_id;sensor_type;location;lat;lon;timestamp;temperature;humidity
33564;DHT22;19894;48.452;11.494;2023-04-25T00:01:37;18.90;41.90
33564;DHT22;19894;48.452;11.494;2023-04-25T00:04:04;18.90;42.10
33564;DHT22;19894;48.452;11.494;2023-04-25T00:06:34;18.90;42.00
33564;DHT22;19894;48.452;11.494;2023-04-25T00:09:02;18.90;42.10
33564;DHT22;19894;48.452;11.494;2023-04-25T00:11:28;18.90;42.00
33564;DHT22;19894;48.452;11.494;2023-04-25T00:13:55;18.90;42.00
33564;DHT22;19894;48.452;11.494;2023-04-25T00:16:21;18.90;41.90
33564;DHT22;19894;48.452;11.494;2023-04-25T00:18:46;18.90;42.00
33564;DHT22;19894;48.452;11.494;2023-04-25T00:21:17;18.90;42.10
33564;DHT22;19894;48.452;11.494;2023-04-25T00:23:43;18.90;42.00
33564;DHT22;19894;48.452;11.494;2023-04-25T00:26:11;18.90;42.20
33564;DHT22;19894;48.452;11.494;2023-04-25T00:28:37;18.90;42.30
33564;DHT22;19894;48.452;11.494;2023-04-25T00:31:03;18.90;42.40
33564;DHT22;19894;48.452;11.494;2023-04-25T00:33:29;18.90;42.40
33564;DHT22;19894;48.452;11.494;2023-04-25T00:35:55;18.80;42.30
33564;DHT22;19894;48.452;11.494;2023-04-25T00:38:21;18.80;42.40
33564;DHT22;19894;48.452;11.494;2023-04-25T00:40:47;18.90;41.80
33564;DHT22;19894;48.452;11.494;2023-04-25T00:43:12;18.90;41.70
33564;DHT22;19894;48.452;11.494;2023-04-25T00:45:39;18.80;41.60
33564;DHT22;19894;48.452;11.494;2023-04-25T00:48:05;18.90;41.60
33564;DHT22;19894;48.452;11.494;2023-04-25T00:50:32;18.90;41.60
33564;DHT22;19894;48.452;11.494;2023-04-25T00:52:58;18.90;41.50
33564;DHT22;19894;48.452;11.494;2023-04-25T00:55:24;18.90;41.60
33564;DHT22;19894;48.452;11.494;2023-04-25T00:57:50;18.90;41.50
33564;DHT22;19894;48.452;11.494;2023-04-25T01:00:16;18.90;41.50
33564;DHT22;19894;48.452;11.494;2023-04-25T01:02:41;18.90;41.50
33564;DHT22;19894;48.452;11.494;2023-04-25T01:05:08;18.90;41.60
33564;DHT22;19894;48.452;11.494;2023-04-25T01:07:34;18.90;41.80
33564;DHT22;19894;48.452;11.494;2023-04-25T01:10:00;18.90;41.80
33564;DHT22;19894;48.452;11.494;2023-04-25T01:12:26;18.90;42.30
33564;DHT22;19894;48.452;11.494;2023-04-25T01:14:51;18.90;41.70
33564;DHT22;19894;48.452;11.494;2023-04-25T01:17:18;18.90;41.80
33564;DHT22;19894;48.452;11.494;2023-04-25T01:19:45;18.90;41.80
33564;DHT22;19894;48.452;11.494;2023-04-25T01:22:13;18.90;41.80
33564;DHT22;19894;48.452;11.494;2023-04-25T01:24:39;18.90;41.80
33564;DHT22;19894;48.452;11.494;2023-04-25T01:27:05;18.90;42.00
33564;DHT22;19894;48.452;11.494;2023-04-25T01:29:35;18.90;41.90
33564;DHT22;19894;48.452;11.494;2023-04-25T01:32:01;18.90;41.80
33564;DHT22;19894;48.452;11.494;2023-04-25T01:34:27;18.90;42.20
33564;DHT22;19894;48.452;11.494;2023-04-25T01:36:53;18.80;42.10
33564;DHT22;19894;48.452;11.494;2023-04-25T01:39:19;18.80;42.30
33564;DHT22;19894;48.452;11.494;2023-04-25T01:41:48;18.80;42.10
33564;DHT22;19894;48.452;11.494;2023-04-25T01:44:14;18.80;42.30
33564;DHT22;19894;48.452;11.494;2023-04-25T01:46:40;18.90;41.90
33564;DHT22;19894;48.452;11.494;2023-04-25T01:49:06;18.80;41.70
33564;DHT22;19894;48.452;11.494;2023-04-25T01:51:31;18.90;41.70
33564;DHT22;19894;48.452;11.494;2023-04-25T01:53:58;18.90;41.70
33564;DHT22;19894;48.452;11.494;2023-04-25T01:56:24;18.90;41.60
33564;DHT22;19894;48.452;11.494;2023-04-25T01:58:50;18.90;41.70
33564;DHT22;19894;48.452;11.494;2023-04-25T02:01:16;18.90;41.70
33564;DHT22;19894;48.452;11.494;2023-04-25T02:03:42;18.90;41.70
33564;DHT22;19894;48.452;11.494;2023-04-25T02:06:08;18.90;42.20
33564;DHT22;19894;48.452;11.494;2023-04-25T02:08:33;18.90;41.60
33564;DHT22;19894;48.452;11.494;2023-04-25T02:10:59;18.90;41.70
33564;DHT22;19894;48.452;11.494;2023-04-25T02:13:24;18.90;41.80
33564;DHT22;19894;48.452;11.494;2023-04-25T02:15:50;18.90;41.90
33564;DHT22;19894;48.452;11.494;2023-04-25T02:18:15;18.90;41.80
33564;DHT22;19894;48.452;11.494;2023-04-25T02:20:42;18.90;41.80
33564;DHT22;19894;48.452;11.494;2023-04-25T02:23:08;18.90;41.80
33564;DHT22;19894;48.452;11.494;2023-04-25T02:25:33;18.90;41.80
33564;DHT22;19894;48.452;11.494;2023-04-25T02:27:59;18.90;41.90
33564;DHT22;19894;48.452;11.494;2023-04-25T02:30:24;18.80;41.80
33564;DHT22;19894;48.452;11.494;2023-04-25T02:32:50;18.90;41.90
33564;DHT22;19894;48.452;11.494;2023-04-25T02:35:16;18.90;41.90
33564;DHT22;19894;48.452;11.494;2023-04-25T02:37:42;18.90;42.00
33564;DHT22;19894;48.452;11.494;2023-04-25T02:40:08;18.90;42.00
33564;DHT22;19894;48.452;11.494;2023-04-25T02:42:34;18.80;42.10
33564;DHT22;19894;48.452;11.494;2023-04-25T02:45:00;18.80;42.10
33564;DHT22;19894;48.452;11.494;2023-04-25T02:47:26;18.90;42.20
33564;DHT22;19894;48.452;11.494;2023-04-25T02:49:51;18.90;41.80
33564;DHT22;19894;48.452;11.494;2023-04-25T02:52:17;18.80;41.80
33564;DHT22;19894;48.452;11.494;2023-04-25T02:54:42;18.90;41.80
33564;DHT22;19894;48.452;11.494;2023-04-25T02:57:08;18.90;41.70
33564;DHT22;19894;48.452;11.494;2023-04-25T02:59:34;18.90;41.70
33564;DHT22;19894;48.452;11.494;2023-04-25T03:02:00;18.90;41.70
33564;DHT22;19894;48.452;11.494;2023-04-25T03:04:26;18.90;41.70
33564;DHT22;19894;48.452;11.494;2023-04-25T03:06:52;18.90;41.60
33564;DHT22;19894;48.452;11.494;2023-04-25T03:09:19;18.90;41.70
33564;DHT22;19894;48.452;11.494;2023-04-25T03:11:45;18.90;41.70
33564;DHT22;19894;48.452;11.494;2023-04-25T03:14:11;18.90;41.70
33564;DHT22;19894;48.452;11.494;2023-04-25T03:16:37;18.90;41.70
33564;DHT22;19894;48.452;11.494;2023-04-25T03:19:03;18.90;41.80
33564;DHT22;19894;48.452;11.494;2023-04-25T03:21:30;18.90;41.80
33564;DHT22;19894;48.452;11.494;2023-04-25T03:23:57;18.90;41.80
33564;DHT22;19894;48.452;11.494;2023-04-25T03:26:23;18.90;41.80
33564;DHT22;19894;48.452;11.494;2023-04-25T03:28:48;18.90;41.80
33564;DHT22;19894;48.452;11.494;2023-04-25T03:31:14;18.90;42.40
33564;DHT22;19894;48.452;11.494;2023-04-25T03:33:40;18.90;41.70
33564;DHT22;19894;48.452;11.494;2023-04-25T03:36:06;18.90;41.80
33564;DHT22;19894;48.452;11.494;2023-04-25T03:38:31;18.90;41.90
33564;DHT22;19894;48.452;11.494;2023-04-25T03:40:57;18.90;42.00
33564;DHT22;19894;48.452;11.494;2023-04-25T03:43:23;18.90;42.00
33564;DHT22;19894;48.452;11.494;2023-04-25T03:45:48;18.80;42.10
33564;DHT22;19894;48.452;11.494;2023-04-25T03:48:14;18.80;42.10
33564;DHT22;19894;48.452;11.494;2023-04-25T03:50:40;18.80;42.20
33564;DHT22;19894;48.452;11.494;2023-04-25T03:53:05;18.80;42.00
33564;DHT22;19894;48.452;11.494;2023-04-25T03:55:31;18.80;42.10
33564;DHT22;19894;48.452;11.494;2023-04-25T03:57:57;18.80;41.90
33564;DHT22;19894;48.452;11.494;2023-04-25T04:00:24;18.90;42.00
33564;DHT22;19894;48.452;11.494;2023-04-25T04:02:49;18.80;41.80
33564;DHT22;19894;48.452;11.494;2023-04-25T04:05:15;18.90;41.90
33564;DHT22;19894;48.452;11.494;2023-04-25T04:07:41;18.90;41.80
33564;DHT22;19894;48.452;11.494;2023-04-25T04:10:11;18.90;41.80
33564;DHT22;19894;48.452;11.494;2023-04-25T04:12:37;18.90;41.90
33564;DHT22;19894;48.452;11.494;2023-04-25T04:15:06;18.90;41.80
33564;DHT22;19894;48.452;11.494;2023-04-25T04:17:32;18.90;41.90
33564;DHT22;19894;48.452;11.494;2023-04-25T04:19:58;18.90;41.90
33564;DHT22;19894;48.452;11.494;2023-04-25T04:22:24;18.90;42.10
33564;DHT22;19894;48.452;11.494;2023-04-25T04:24:50;18.90;42.00
33564;DHT22;19894;48.452;11.494;2023-04-25T04:27:17;18.90;42.00
33564;DHT22;19894;48.452;11.494;2023-04-25T04:29:43;18.90;41.90
33564;DHT22;19894;48.452;11.494;2023-04-25T04:32:09;18.90;42.00
33564;DHT22;19894;48.452;11.494;2023-04-25T04:34:35;18.90;42.00
33564;DHT22;19894;48.452;11.494;2023-04-25T04:37:00;18.90;42.00
33564;DHT22;19894;48.452;11.494;2023-04-25T04:39:26;18.90;42.00
33564;DHT22;19894;48.452;11.494;2023-04-25T04:41:52;18.90;42.00
33564;DHT22;19894;48.452;11.494;2023-04-25T04:44:17;18.90;42.20
33564;DHT22;19894;48.452;11.494;2023-04-25T04:46:43;18.80;42.10
33564;DHT22;19894;48.452;11.494;2023-04-25T04:49:13;18.90;42.20
33564;DHT22;19894;48.452;11.494;2023-04-25T04:51:42;18.80;42.20
33564;DHT22;19894;48.452;11.494;2023-04-25T04:54:10;18.80;42.10
33564;DHT22;19894;48.452;11.494;2023-04-25T04:56:35;18.90;42.20
33564;DHT22;19894;48.452;11.494;2023-04-25T04:59:01;18.90;42.20
33564;DHT22;19894;48.452;11.494;2023-04-25T05:01:28;18.80;42.10
33564;DHT22;19894;48.452;11.494;2023-04-25T05:03:55;18.80;42.00
33564;DHT22;19894;48.452;11.494;2023-04-25T05:06:25;18.90;42.00
33564;DHT22;19894;48.452;11.494;2023-04-25T05:08:51;18.90;42.00
33564;DHT22;19894;48.452;11.494;2023-04-25T05:11:18;18.90;42.00
33564;DHT22;19894;48.452;11.494;2023-04-25T05:13:43;18.90;41.90
33564;DHT22;19894;48.452;11.494;2023-04-25T05:16:09;18.90;41.90
33564;DHT22;19894;48.452;11.494;2023-04-25T05:18:35;18.90;42.00
33564;DHT22;19894;48.452;11.494;2023-04-25T05:21:01;18.90;41.90
33564;DHT22;19894;48.452;11.494;2023-04-25T05:23:27;18.90;41.90
33564;DHT22;19894;48.452;11.494;2023-04-25T05:25:53;18.90;42.00
33564;DHT22;19894;48.452;11.494;2023-04-25T05:28:19;18.90;42.00
33564;DHT22;19894;48.452;11.494;2023-04-25T05:30:46;18.90;42.10
33564;DHT22;19894;48.452;11.494;2023-04-25T05:33:11;18.90;42.00
33564;DHT22;19894;48.452;11.494;2023-04-25T05:35:37;18.90;42.00
33564;DHT22;19894;48.452;11.494;2023-04-25T05:38:02;18.90;42.60
33564;DHT22;19894;48.452;11.494;2023-04-25T05:40:28;18.90;42.10
33564;DHT22;19894;48.452;11.494;2023-04-25T05:42:53;18.90;42.60
33564;DHT22;19894;48.452;11.494;2023-04-25T05:45:19;18.90;42.00
33564;DHT22;19894;48.452;11.494;2023-04-25T05:47:44;18.90;42.00
33564;DHT22;19894;48.452;11.494;2023-04-25T05:50:10;18.90;42.10
33564;DHT22;19894;48.452;11.494;2023-04-25T05:52:36;18.80;42.20
33564;DHT22;19894;48.452;11.494;2023-04-25T05:55:01;18.80;42.70
33564;DHT22;19894;48.452;11.494;2023-04-25T05:57:27;18.80;42.30
33564;DHT22;19894;48.452;11.494;2023-04-25T05:59:53;18.80;42.30
33564;DHT22;19894;48.452;11.494;2023-04-25T06:02:20;18.80;42.30
33564;DHT22;19894;48.452;11.494;2023-04-25T06:04:47;18.80;42.30
33564;DHT22;19894;48.452;11.494;2023-04-25T06:07:13;18.80;42.20
33564;DHT22;19894;48.452;11.494;2023-04-25T06:09:38;18.90;42.20
33564;DHT22;19894;48.452;11.494;2023-04-25T06:12:06;18.80;42.10
33564;DHT22;19894;48.452;11.494;2023-04-25T06:14:31;18.90;42.10
33564;DHT22;19894;48.452;11.494;2023-04-25T06:16:57;18.90;42.20
33564;DHT22;19894;48.452;11.494;2023-04-25T06:19:23;18.90;42.20
33564;DHT22;19894;48.452;11.494;2023-04-25T06:21:48;18.90;42.20
33564;DHT22;19894;48.452;11.494;2023-04-25T06:24:14;18.90;42.20
33564;DHT22;19894;48.452;11.494;2023-04-25T06:26:39;18.90;42.20
33564;DHT22;19894;48.452;11.494;2023-04-25T06:29:05;18.90;42.20
33564;DHT22;19894;48.452;11.494;2023-04-25T06:31:30;18.90;42.20
33564;DHT22;19894;48.452;11.494;2023-04-25T06:33:58;18.90;42.30
33564;DHT22;19894;48.452;11.494;2023-04-25T06:36:23;18.90;42.20
33564;DHT22;19894;48.452;11.494;2023-04-25T06:38:51;18.90;42.20
33564;DHT22;19894;48.452;11.494;2023-04-25T06:41:18;18.90;42.20
33564;DHT22;19894;48.452;11.494;2023-04-25T06:43:44;18.90;42.30
33564;DHT22;19894;48.452;11.494;2023-04-25T06:46:10;18.90;42.20
33564;DHT22;19894;48.452;11.494;2023-04-25T06:48:36;18.90;42.30
33564;DHT22;19894;48.452;11.494;2023-04-25T06:51:01;18.90;42.30
33564;DHT22;19894;48.452;11.494;2023-04-25T06:53:27;18.90;42.30
33564;DHT22;19894;48.452;11.494;2023-04-25T06:55:53;18.80;42.30
33564;DHT22;19894;48.452;11.494;2023-04-25T06:58:18;18.90;42.40
33564;DHT22;19894;48.452;11.494;2023-04-25T07:00:44;18.80;42.40
33564;DHT22;19894;48.452;11.494;2023-04-25T07:03:10;18.80;42.50
33564;DHT22;19894;48.452;11.494;2023-04-25T07:05:36;18.90;42.60
33564;DHT22;19894;48.452;11.494;2023-04-25T07:08:01;18.80;42.50
33564;DHT22;19894;48.452;11.494;2023-04-25T07:10:28;18.80;42.60
33564;DHT22;19894;48.452;11.494;2023-04-25T07:12:53;18.80;42.50
33564;DHT22;19894;48.452;11.494;2023-04-25T07:15:19;18.80;42.50
33564;DHT22;19894;48.452;11.494;2023-04-25T07:17:45;18.80;42.60
33564;DHT22;19894;48.452;11.494;2023-04-25T07:20:11;18.90;42.70
33564;DHT22;19894;48.452;11.494;2023-04-25T07:22:36;18.90;42.70
33564;DHT22;19894;48.452;11.494;2023-04-25T07:25:02;18.90;42.70
33564;DHT22;19894;48.452;11.494;2023-04-25T07:27:29;18.90;42.70
33564;DHT22;19894;48.452;11.494;2023-04-25T07:29:55;18.90;42.80
33564;DHT22;19894;48.452;11.494;2023-04-25T07:32:20;18.90;42.80
33564;DHT22;19894;48.452;11.494;2023-04-25T07:34:46;18.90;42.80
33564;DHT22;19894;48.452;11.494;2023-04-25T07:37:12;18.90;42.80
33564;DHT22;19894;48.452;11.494;2023-04-25T07:39:39;18.90;42.90
33564;DHT22;19894;48.452;11.494;2023-04-25T07:42:05;18.90;42.80
33564;DHT22;19894;48.452;11.494;2023-04-25T07:44:34;18.90;42.90
33564;DHT22;19894;48.452;11.494;2023-04-25T07:47:07;18.90;42.90
33564;DHT22;19894;48.452;11.494;2023-04-25T07:49:33;18.90;42.90
33564;DHT22;19894;48.452;11.494;2023-04-25T07:52:00;18.90;43.00
33564;DHT22;19894;48.452;11.494;2023-04-25T07:54:26;18.90;43.00
33564;DHT22;19894;48.452;11.494;2023-04-25T07:56:52;18.90;43.00
33564;DHT22;19894;48.452;11.494;2023-04-25T07:59:17;18.90;43.00
33564;DHT22;19894;48.452;11.494;2023-04-25T08:01:43;18.90;43.00
33564;DHT22;19894;48.452;11.494;2023-04-25T08:04:08;18.90;43.10
33564;DHT22;19894;48.452;11.494;2023-04-25T08:06:34;18.90;43.10
33564;DHT22;19894;48.452;11.494;2023-04-25T08:09:01;18.80;43.10
33564;DHT22;19894;48.452;11.494;2023-04-25T08:11:26;18.80;43.10
33564;DHT22;19894;48.452;11.494;2023-04-25T08:13:52;18.80;43.10
33564;DHT22;19894;48.452;11.494;2023-04-25T08:16:17;18.80;43.10
33564;DHT22;19894;48.452;11.494;2023-04-25T08:18:43;18.80;43.10
33564;DHT22;19894;48.452;11.494;2023-04-25T08:21:09;18.90;43.10
33564;DHT22;19894;48.452;11.494;2023-04-25T08:23:36;18.90;43.20
33564;DHT22;19894;48.452;11.494;2023-04-25T08:26:02;18.90;43.20
33564;DHT22;19894;48.452;11.494;2023-04-25T08:28:30;18.90;43.20
33564;DHT22;19894;48.452;11.494;2023-04-25T08:30:55;18.90;43.20
33564;DHT22;19894;48.452;11.494;2023-04-25T08:33:21;18.90;43.20
33564;DHT22;19894;48.452;11.494;2023-04-25T08:35:47;18.90;43.10
33564;DHT22;19894;48.452;11.494;2023-04-25T08:38:12;18.90;43.10
33564;DHT22;19894;48.452;11.494;2023-04-25T08:40:39;18.90;43.10
33564;DHT22;19894;48.452;11.494;2023-04-25T08:43:06;18.90;43.10
33564;DHT22;19894;48.452;11.494;2023-04-25T08:45:39;18.90;43.00
33564;DHT22;19894;48.452;11.494;2023-04-25T08:48:10;18.90;43.00
33564;DHT22;19894;48.452;11.494;2023-04-25T08:50:55;18.90;43.00
33564;DHT22;19894;48.452;11.494;2023-04-25T08:53:25;18.90;43.00
33564;DHT22;19894;48.452;11.494;2023-04-25T08:55:57;18.90;43.00
33564;DHT22;19894;48.452;11.494;2023-04-25T08:58:24;18.90;43.10
33564;DHT22;19894;48.452;11.494;2023-04-25T09:00:51;18.90;43.20
33564;DHT22;19894;48.452;11.494;2023-04-25T09:03:17;18.90;43.20
33564;DHT22;19894;48.452;11.494;2023-04-25T09:05:43;18.80;43.20
33564;DHT22;19894;48.452;11.494;2023-04-25T09:08:09;18.90;43.30
33564;DHT22;19894;48.452;11.494;2023-04-25T09:10:35;18.90;43.80
33564;DHT22;19894;48.452;11.494;2023-04-25T09:13:04;18.90;43.40
33564;DHT22;19894;48.452;11.494;2023-04-25T09:15:31;18.80;43.30
33564;DHT22;19894;48.452;11.494;2023-04-25T09:17:58;18.80;43.30
33564;DHT22;19894;48.452;11.494;2023-04-25T09:20:23;18.80;43.30
33564;DHT22;19894;48.452;11.494;2023-04-25T09:23:04;18.80;43.20
33564;DHT22;19894;48.452;11.494;2023-04-25T09:25:37;18.80;43.10
33564;DHT22;19894;48.452;11.494;2023-04-25T09:28:06;18.90;43.10
33564;DHT22;19894;48.452;11.494;2023-04-25T09:30:34;18.90;43.00
33564;DHT22;19894;48.452;11.494;2023-04-25T09:33:07;18.90;43.10
33564;DHT22;19894;48.452;11.494;2023-04-25T09:35:40;18.90;43.00
33564;DHT22;19894;48.452;11.494;2023-04-25T09:38:14;18.90;43.00
33564;DHT22;19894;48.452;11.494;2023-04-25T09:40:44;18.90;42.90
33564;DHT22;19894;48.452;11.494;2023-04-25T09:43:30;18.90;42.90
33564;DHT22;19894;48.452;11.494;2023-04-25T09:45:56;18.90;42.90
33564;DHT22;19894;48.452;11.494;2023-04-25T09:48:26;18.90;42.80
33564;DHT22;19894;48.452;11.494;2023-04-25T09:51:11;18.90;42.90
33564;DHT22;19894;48.452;11.494;2023-04-25T09:53:39;18.90;42.80
33564;DHT22;19894;48.452;11.494;2023-04-25T09:56:07;18.90;42.80
33564;DHT22;19894;48.452;11.494;2023-04-25T09:58:33;18.90;42.70
33564;DHT22;19894;48.452;11.494;2023-04-25T10:01:01;18.90;42.70
33564;DHT22;19894;48.452;11.494;2023-04-25T10:03:30;18.90;42.70
33564;DHT22;19894;48.452;11.494;2023-04-25T10:05:58;18.90;42.70
33564;DHT22;19894;48.452;11.494;2023-04-25T10:08:24;18.90;42.70
33564;DHT22;19894;48.452;11.494;2023-04-25T10:10:52;18.90;42.70
33564;DHT22;19894;48.452;11.494;2023-04-25T10:13:18;18.80;42.70
33564;DHT22;19894;48.452;11.494;2023-04-25T10:15:44;18.80;42.70
33564;DHT22;19894;48.452;11.494;2023-04-25T10:18:11;18.80;42.70
33564;DHT22;19894;48.452;11.494;2023-04-25T10:20:37;18.80;42.60
33564;DHT22;19894;48.452;11.494;2023-04-25T10:23:13;18.80;42.70
33564;DHT22;19894;48.452;11.494;2023-04-25T10:25:39;18.80;42.50
33564;DHT22;19894;48.452;11.494;2023-04-25T10:28:05;18.80;42.50
33564;DHT22;19894;48.452;11.494;2023-04-25T10:30:31;18.80;42.50
33564;DHT22;19894;48.452;11.494;2023-04-25T10:32:58;18.90;42.60
33564;DHT22;19894;48.452;11.494;2023-04-25T10:35:29;18.90;42.70
33564;DHT22;19894;48.452;11.494;2023-04-25T10:38:05;18.80;42.60
33564;DHT22;19894;48.452;11.494;2023-04-25T10:40:31;18.80;43.10
33564;DHT22;19894;48.452;11.494;2023-04-25T10:43:33;18.80;43.30
33564;DHT22;19894;48.452;11.494;2023-04-25T10:45:59;18.80;43.40
33564;DHT22;19894;48.452;11.494;2023-04-25T10:48:30;18.80;43.50
33564;DHT22;19894;48.452;11.494;2023-04-25T10:51:09;18.80;43.60
33564;DHT22;19894;48.452;11.494;2023-04-25T10:53:34;18.70;43.60
33564;DHT22;19894;48.452;11.494;2023-04-25T10:56:00;18.70;43.60
33564;DHT22;19894;48.452;11.494;2023-04-25T10:58:26;18.70;43.70
33564;DHT22;19894;48.452;11.494;2023-04-25T11:00:52;18.70;43.80
33564;DHT22;19894;48.452;11.494;2023-04-25T11:03:21;18.70;43.90
33564;DHT22;19894;48.452;11.494;2023-04-25T11:05:48;18.70;43.90
33564;DHT22;19894;48.452;11.494;2023-04-25T11:08:22;18.80;44.00
33564;DHT22;19894;48.452;11.494;2023-04-25T11:10:53;18.70;44.00
33564;DHT22;19894;48.452;11.494;2023-04-25T11:13:20;18.70;44.10
33564;DHT22;19894;48.452;11.494;2023-04-25T11:15:51;18.70;44.10
33564;DHT22;19894;48.452;11.494;2023-04-25T11:18:17;18.70;44.20
33564;DHT22;19894;48.452;11.494;2023-04-25T11:20:43;18.70;44.30
33564;DHT22;19894;48.452;11.494;2023-04-25T11:23:09;18.70;44.30
33564;DHT22;19894;48.452;11.494;2023-04-25T11:25:34;18.70;44.30
33564;DHT22;19894;48.452;11.494;2023-04-25T11:28:00;18.70;44.40
33564;DHT22;19894;48.452;11.494;2023-04-25T11:30:27;18.70;44.40
33564;DHT22;19894;48.452;11.494;2023-04-25T11:32:54;18.70;44.50
33564;DHT22;19894;48.452;11.494;2023-04-25T11:35:20;18.70;44.60
33564;DHT22;19894;48.452;11.494;2023-04-25T11:37:48;18.70;44.60
33564;DHT22;19894;48.452;11.494;2023-04-25T11:40:14;18.70;44.60
33564;DHT22;19894;48.452;11.494;2023-04-25T11:42:43;18.70;44.70
33564;DHT22;19894;48.452;11.494;2023-04-25T11:45:09;18.70;44.70
33564;DHT22;19894;48.452;11.494;2023-04-25T11:47:36;18.70;44.70
33564;DHT22;19894;48.452;11.494;2023-04-25T11:50:03;18.70;44.70
33564;DHT22;19894;48.452;11.494;2023-04-25T11:52:40;18.70;44.70
33564;DHT22;19894;48.452;11.494;2023-04-25T11:55:10;18.70;44.70
33564;DHT22;19894;48.452;11.494;2023-04-25T11:57:39;18.70;44.80
33564;DHT22;19894;48.452;11.494;2023-04-25T12:00:09;18.70;44.80
33564;DHT22;19894;48.452;11.494;2023-04-25T12:02:36;18.70;44.80
33564;DHT22;19894;48.452;11.494;2023-04-25T12:05:02;18.70;44.80
33564;DHT22;19894;48.452;11.494;2023-04-25T12:07:31;18.70;44.80
33564;DHT22;19894;48.452;11.494;2023-04-25T12:09:57;18.70;44.80
33564;DHT22;19894;48.452;11.494;2023-04-25T12:12:27;18.70;44.80
33564;DHT22;19894;48.452;11.494;2023-04-25T12:14:52;18.70;44.80
33564;DHT22;19894;48.452;11.494;2023-04-25T12:17:20;18.70;44.80
33564;DHT22;19894;48.452;11.494;2023-04-25T12:19:46;18.70;44.80
33564;DHT22;19894;48.452;11.494;2023-04-25T12:22:24;18.70;44.80
33564;DHT22;19894;48.452;11.494;2023-04-25T12:24:50;18.70;44.80
33564;DHT22;19894;48.452;11.494;2023-04-25T12:27:16;18.70;44.90
33564;DHT22;19894;48.452;11.494;2023-04-25T12:29:51;18.70;44.80
33564;DHT22;19894;48.452;11.494;2023-04-25T12:32:17;18.70;44.80
33564;DHT22;19894;48.452;11.494;2023-04-25T12:34:43;18.70;44.80
33564;DHT22;19894;48.452;11.494;2023-04-25T12:37:09;18.70;44.90
33564;DHT22;19894;48.452;11.494;2023-04-25T12:39:35;18.60;44.70
33564;DHT22;19894;48.452;11.494;2023-04-25T12:42:00;18.70;44.70
33564;DHT22;19894;48.452;11.494;2023-04-25T12:44:26;18.60;44.70
33564;DHT22;19894;48.452;11.494;2023-04-25T12:46:52;18.70;44.70
33564;DHT22;19894;48.452;11.494;2023-04-25T12:49:18;18.60;45.20
33564;DHT22;19894;48.452;11.494;2023-04-25T12:51:43;18.60;44.70
33564;DHT22;19894;48.452;11.494;2023-04-25T12:54:09;18.60;44.70
33564;DHT22;19894;48.452;11.494;2023-04-25T12:56:35;18.70;44.80
33564;DHT22;19894;48.452;11.494;2023-04-25T12:59:02;18.60;44.70
33564;DHT22;19894;48.452;11.494;2023-04-25T13:01:30;18.60;44.70
33564;DHT22;19894;48.452;11.494;2023-04-25T13:03:56;18.70;44.80
33564;DHT22;19894;48.452;11.494;2023-04-25T13:06:22;18.60;44.80
33564;DHT22;19894;48.452;11.494;2023-04-25T13:08:47;18.60;44.80
33564;DHT22;19894;48.452;11.494;2023-04-25T13:11:13;18.70;44.90
33564;DHT22;19894;48.452;11.494;2023-04-25T13:13:40;18.70;44.90
33564;DHT22;19894;48.452;11.494;2023-04-25T13:16:06;18.60;44.80
33564;DHT22;19894;48.452;11.494;2023-04-25T13:18:33;18.60;44.80
33564;DHT22;19894;48.452;11.494;2023-04-25T13:20:59;18.60;44.80
33564;DHT22;19894;48.452;11.494;2023-04-25T13:23:26;18.60;44.90
33564;DHT22;19894;48.452;11.494;2023-04-25T13:25:52;18.70;44.90
33564;DHT22;19894;48.452;11.494;2023-04-25T13:28:18;18.70;45.00
33564;DHT22;19894;48.452;11.494;2023-04-25T13:30:44;18.60;44.90
33564;DHT22;19894;48.452;11.494;2023-04-25T13:33:10;18.60;44.90
33564;DHT22;19894;48.452;11.494;2023-04-25T13:35:37;18.60;44.90
33564;DHT22;19894;48.452;11.494;2023-04-25T13:38:03;18.60;45.00
33564;DHT22;19894;48.452;11.494;2023-04-25T13:40:29;18.60;45.00
33564;DHT22;19894;48.452;11.494;2023-04-25T13:42:55;18.60;45.00
33564;DHT22;19894;48.452;11.494;2023-04-25T13:45:21;18.60;45.00
33564;DHT22;19894;48.452;11.494;2023-04-25T13:47:47;18.60;45.00
33564;DHT22;19894;48.452;11.494;2023-04-25T13:50:13;18.60;45.00
33564;DHT22;19894;48.452;11.494;2023-04-25T13:52:39;18.60;45.00
33564;DHT22;19894;48.452;11.494;2023-04-25T13:55:06;18.60;45.00
33564;DHT22;19894;48.452;11.494;2023-04-25T13:57:32;18.60;44.90
33564;DHT22;19894;48.452;11.494;2023-04-25T13:59:58;18.70;44.90
33564;DHT22;19894;48.452;11.494;2023-04-25T14:02:24;18.70;44.80
33564;DHT22;19894;48.452;11.494;2023-04-25T14:04:50;18.70;44.70
33564;DHT22;19894;48.452;11.494;2023-04-25T14:07:16;18.70;45.10
33564;DHT22;19894;48.452;11.494;2023-04-25T14:09:42;18.70;44.50
33564;DHT22;19894;48.452;11.494;2023-04-25T14:12:07;18.70;44.40
33564;DHT22;19894;48.452;11.494;2023-04-25T14:14:33;18.70;44.40
33564;DHT22;19894;48.452;11.494;2023-04-25T14:16:59;18.80;44.30
33564;DHT22;19894;48.452;11.494;2023-04-25T14:19:24;18.80;44.30
33564;DHT22;19894;48.452;11.494;2023-04-25T14:21:50;18.80;44.20
33564;DHT22;19894;48.452;11.494;2023-04-25T14:24:15;18.80;44.20
33564;DHT22;19894;48.452;11.494;2023-04-25T14:26:41;18.80;44.20
33564;DHT22;19894;48.452;11.494;2023-04-25T14:29:08;18.80;44.20
33564;DHT22;19894;48.452;11.494;2023-04-25T14:31:34;18.80;44.10
33564;DHT22;19894;48.452;11.494;2023-04-25T14:34:01;18.80;44.10
33564;DHT22;19894;48.452;11.494;2023-04-25T14:36:30;18.80;44.10
33564;DHT22;19894;48.452;11.494;2023-04-25T14:38:56;18.80;44.10
33564;DHT22;19894;48.452;11.494;2023-04-25T14:41:22;18.80;44.10
33564;DHT22;19894;48.452;11.494;2023-04-25T14:43:48;18.80;44.20
33564;DHT22;19894;48.452;11.494;2023-04-25T14:46:14;18.80;44.20
33564;DHT22;19894;48.452;11.494;2023-04-25T14:48:39;18.80;44.30
33564;DHT22;19894;48.452;11.494;2023-04-25T14:51:05;18.80;44.30
33564;DHT22;19894;48.452;11.494;2023-04-25T14:53:31;18.80;44.40
33564;DHT22;19894;48.452;11.494;2023-04-25T14:55:57;18.80;44.40
33564;DHT22;19894;48.452;11.494;2023-04-25T14:58:23;18.80;44.40
33564;DHT22;19894;48.452;11.494;2023-04-25T15:00:48;18.80;44.40
33564;DHT22;19894;48.452;11.494;2023-04-25T15:03:14;18.80;44.30
33564;DHT22;19894;48.452;11.494;2023-04-25T15:05:41;18.80;44.30
33564;DHT22;19894;48.452;11.494;2023-04-25T15:08:07;18.80;44.30
33564;DHT22;19894;48.452;11.494;2023-04-25T15:10:33;18.80;44.20
33564;DHT22;19894;48.452;11.494;2023-04-25T15:12:59;18.80;44.20